sensor_id;sensor_type;location;lat;lon;timestamp;temperature;humidity
44729;DHT22;30457;53.590;9.922;2022-10-30T00:03:20;18.90;60.50
44729;DHT22;30457;53.590;9.922;2022-10-30T00:07:46;18.90;60.40
44729;DHT22;30457;53.590;9.922;2022-10-30T00:12:12;18.80;61.30
44729;DHT22;30457;53.590;9.922;2022-10-30T00:16:38;18.80;60.60
44729;DHT22;30457;53.590;9.922;2022-10-30T00:21:05;18.80;59.90
44729;DHT22;30457;53.590;9.922;2022-10-30T00:25:31;18.70;60.40
44729;DHT22;30457;53.590;9.922;2022-10-30T00:29:58;18.70;60.60
44729;DHT22;30457;53.590;9.922;2022-10-30T00:34:24;18.70;60.70
44729;DHT22;30457;53.590;9.922;2022-10-30T00:38:49;18.70;60.60
44729;DHT22;30457;53.590;9.922;2022-10-30T00:43:35;18.60;60.60
44729;DHT22;30457;53.590;9.922;2022-10-30T00:48:03;18.60;61.20
44729;DHT22;30457;53.590;9.922;2022-10-30T00:52:32;18.60;61.00
44729;DHT22;30457;53.590;9.922;2022-10-30T00:56:58;18.60;61.70
44729;DHT22;30457;53.590;9.922;2022-10-30T01:01:28;18.50;61.00
44729;DHT22;30457;53.590;9.922;2022-10-30T01:06:00;18.50;61.10
44729;DHT22;30457;53.590;9.922;2022-10-30T01:10:26;18.50;61.10
44729;DHT22;30457;53.590;9.922;2022-10-30T01:14:54;18.40;60.70
44729;DHT22;30457;53.590;9.922;2022-10-30T01:19:29;18.40;60.70
44729;DHT22;30457;53.590;9.922;2022-10-30T01:24:27;18.40;60.80
44729;DHT22;30457;53.590;9.922;2022-10-30T01:29:33;18.40;60.70
44729;DHT22;30457;53.590;9.922;2022-10-30T01:34:18;18.30;60.80
44729;DHT22;30457;53.590;9.922;2022-10-30T01:38:54;18.30;60.60
44729;DHT22;30457;53.590;9.922;2022-10-30T01:43:21;18.30;60.70
44729;DHT22;30457;53.590;9.922;2022-10-30T01:47:58;18.20;60.50
44729;DHT22;30457;53.590;9.922;2022-10-30T01:52:58;18.20;60.60
44729;DHT22;30457;53.590;9.922;2022-10-30T01:57:43;18.20;61.20
44729;DHT22;30457;53.590;9.922;2022-10-30T02:02:12;18.10;61.30
44729;DHT22;30457;53.590;9.922;2022-10-30T02:06:39;18.10;61.00
44729;DHT22;30457;53.590;9.922;2022-10-30T02:11:05;18.10;60.80
44729;DHT22;30457;53.590;9.922;2022-10-30T02:15:36;18.00;61.30
44729;DHT22;30457;53.590;9.922;2022-10-30T02:20:02;18.00;60.30
44729;DHT22;30457;53.590;9.922;2022-10-30T02:24:29;18.00;60.40
44729;DHT22;30457;53.590;9.922;2022-10-30T02:28:55;18.00;60.40
44729;DHT22;30457;53.590;9.922;2022-10-30T02:33:20;17.90;60.20
44729;DHT22;30457;53.590;9.922;2022-10-30T02:37:48;17.80;60.20
44729;DHT22;30457;53.590;9.922;2022-10-30T02:42:14;17.90;60.70
44729;DHT22;30457;53.590;9.922;2022-10-30T02:46:40;17.80;60.80
44729;DHT22;30457;53.590;9.922;2022-10-30T02:51:06;17.70;60.80
44729;DHT22;30457;53.590;9.922;2022-10-30T02:55:32;17.70;60.50
44729;DHT22;30457;53.590;9.922;2022-10-30T02:59:57;17.70;60.50
44729;DHT22;30457;53.590;9.922;2022-10-30T03:04:23;17.60;60.40
44729;DHT22;30457;53.590;9.922;2022-10-30T03:08:49;17.60;60.10
44729;DHT22;30457;53.590;9.922;2022-10-30T03:13:14;17.50;60.00
44729;DHT22;30457;53.590;9.922;2022-10-30T03:17:40;17.40;60.00
44729;DHT22;30457;53.590;9.922;2022-10-30T03:22:06;17.40;60.10
44729;DHT22;30457;53.590;9.922;2022-10-30T03:26:31;17.30;60.20
44729;DHT22;30457;53.590;9.922;2022-10-30T03:31:08;17.30;60.30
44729;DHT22;30457;53.590;9.922;2022-10-30T03:35:37;17.30;60.60
44729;DHT22;30457;53.590;9.922;2022-10-30T03:40:03;17.20;60.90
44729;DHT22;30457;53.590;9.922;2022-10-30T03:44:31;17.20;60.60
44729;DHT22;30457;53.590;9.922;2022-10-30T03:48:56;17.10;60.40
44729;DHT22;30457;53.590;9.922;2022-10-30T03:53:23;17.10;60.30
44729;DHT22;30457;53.590;9.922;2022-10-30T03:57:50;17.10;60.30
44729;DHT22;30457;53.590;9.922;2022-10-30T04:02:17;17.00;60.20
44729;DHT22;30457;53.590;9.922;2022-10-30T04:06:42;17.00;60.30
44729;DHT22;30457;53.590;9.922;2022-10-30T04:11:09;17.00;60.80
44729;DHT22;30457;53.590;9.922;2022-10-30T04:15:36;17.00;60.70
44729;DHT22;30457;53.590;9.922;2022-10-30T04:20:02;16.90;60.50
44729;DHT22;30457;53.590;9.922;2022-10-30T04:24:30;16.90;60.70
44729;DHT22;30457;53.590;9.922;2022-10-30T04:28:56;16.90;60.90
44729;DHT22;30457;53.590;9.922;2022-10-30T04:33:22;16.90;60.90
44729;DHT22;30457;53.590;9.922;2022-10-30T04:38:09;16.80;60.80
44729;DHT22;30457;53.590;9.922;2022-10-30T04:42:35;16.80;61.40
44729;DHT22;30457;53.590;9.922;2022-10-30T04:47:01;16.80;61.00
44729;DHT22;30457;53.590;9.922;2022-10-30T04:51:27;16.80;61.10
44729;DHT22;30457;53.590;9.922;2022-10-30T04:55:53;16.80;61.30
44729;DHT22;30457;53.590;9.922;2022-10-30T05:00:19;16.80;61.40
44729;DHT22;30457;53.590;9.922;2022-10-30T05:04:45;16.80;61.60
44729;DHT22;30457;53.590;9.922;2022-10-30T05:09:11;16.80;61.70
44729;DHT22;30457;53.590;9.922;2022-10-30T05:13:38;16.80;61.90
44729;DHT22;30457;53.590;9.922;2022-10-30T05:18:04;16.80;62.10
44729;DHT22;30457;53.590;9.922;2022-10-30T05:22:30;16.80;62.20
44729;DHT22;30457;53.590;9.922;2022-10-30T05:26:56;16.80;62.30
44729;DHT22;30457;53.590;9.922;2022-10-30T05:31:21;16.80;62.20
44729;DHT22;30457;53.590;9.922;2022-10-30T05:36:06;16.80;62.20
44729;DHT22;30457;53.590;9.922;2022-10-30T05:40:33;16.80;62.00
44729;DHT22;30457;53.590;9.922;2022-10-30T05:44:59;16.80;62.30
44729;DHT22;30457;53.590;9.922;2022-10-30T05:49:24;16.80;62.30
44729;DHT22;30457;53.590;9.922;2022-10-30T05:53:50;16.80;62.50
44729;DHT22;30457;53.590;9.922;2022-10-30T05:58:18;16.90;62.80
44729;DHT22;30457;53.590;9.922;2022-10-30T06:02:45;16.80;62.90
44729;DHT22;30457;53.590;9.922;2022-10-30T06:07:13;16.90;63.00
44729;DHT22;30457;53.590;9.922;2022-10-30T06:11:38;16.90;62.70
44729;DHT22;30457;53.590;9.922;2022-10-30T06:16:06;16.90;63.20
44729;DHT22;30457;53.590;9.922;2022-10-30T06:20:54;16.90;62.30
44729;DHT22;30457;53.590;9.922;2022-10-30T06:25:31;16.90;62.10
44729;DHT22;30457;53.590;9.922;2022-10-30T06:30:08;16.90;62.10
44729;DHT22;30457;53.590;9.922;2022-10-30T06:34:37;16.90;62.10
44729;DHT22;30457;53.590;9.922;2022-10-30T06:39:02;16.90;62.30
44729;DHT22;30457;53.590;9.922;2022-10-30T06:43:36;16.90;62.20
44729;DHT22;30457;53.590;9.922;2022-10-30T06:48:05;16.90;62.50
44729;DHT22;30457;53.590;9.922;2022-10-30T06:52:36;16.80;62.60
44729;DHT22;30457;53.590;9.922;2022-10-30T06:57:02;16.90;62.90
44729;DHT22;30457;53.590;9.922;2022-10-30T07:01:46;16.90;63.20
44729;DHT22;30457;53.590;9.922;2022-10-30T07:06:16;17.00;63.20
44729;DHT22;30457;53.590;9.922;2022-10-30T07:10:42;17.00;63.30
44729;DHT22;30457;53.590;9.922;2022-10-30T07:15:16;17.00;63.30
44729;DHT22;30457;53.590;9.922;2022-10-30T07:19:54;17.00;63.60
44729;DHT22;30457;53.590;9.922;2022-10-30T07:24:20;17.10;63.60
44729;DHT22;30457;53.590;9.922;2022-10-30T07:29:04;17.20;63.70
44729;DHT22;30457;53.590;9.922;2022-10-30T07:33:40;17.20;63.60
44729;DHT22;30457;53.590;9.922;2022-10-30T07:38:17;17.30;64.60
44729;DHT22;30457;53.590;9.922;2022-10-30T07:42:57;17.30;63.80
44729;DHT22;30457;53.590;9.922;2022-10-30T07:47:46;17.40;64.00
44729;DHT22;30457;53.590;9.922;2022-10-30T07:52:32;17.60;64.40
44729;DHT22;30457;53.590;9.922;2022-10-30T07:56:58;17.70;64.60
44729;DHT22;30457;53.590;9.922;2022-10-30T08:01:42;17.80;64.60
44729;DHT22;30457;53.590;9.922;2022-10-30T08:06:24;18.00;64.60
44729;DHT22;30457;53.590;9.922;2022-10-30T08:10:50;18.10;64.20
44729;DHT22;30457;53.590;9.922;2022-10-30T08:15:16;18.30;64.00
44729;DHT22;30457;53.590;9.922;2022-10-30T08:19:41;18.40;63.50
44729;DHT22;30457;53.590;9.922;2022-10-30T08:24:07;18.50;62.90
44729;DHT22;30457;53.590;9.922;2022-10-30T08:28:33;18.60;62.70
44729;DHT22;30457;53.590;9.922;2022-10-30T08:33:02;18.70;62.50
44729;DHT22;30457;53.590;9.922;2022-10-30T08:37:48;18.70;62.30
44729;DHT22;30457;53.590;9.922;2022-10-30T08:42:14;18.80;62.10
44729;DHT22;30457;53.590;9.922;2022-10-30T08:46:43;18.80;61.90
44729;DHT22;30457;53.590;9.922;2022-10-30T08:51:08;18.90;61.80
44729;DHT22;30457;53.590;9.922;2022-10-30T08:55:40;18.90;61.60
44729;DHT22;30457;53.590;9.922;2022-10-30T09:00:14;19.00;62.10
44729;DHT22;30457;53.590;9.922;2022-10-30T09:05:02;19.10;62.10
44729;DHT22;30457;53.590;9.922;2022-10-30T09:09:52;19.30;62.30
44729;DHT22;30457;53.590;9.922;2022-10-30T09:14:17;19.50;62.30
44729;DHT22;30457;53.590;9.922;2022-10-30T09:18:43;19.60;62.00
44729;DHT22;30457;53.590;9.922;2022-10-30T09:23:08;19.80;61.90
44729;DHT22;30457;53.590;9.922;2022-10-30T09:27:38;20.00;61.60
44729;DHT22;30457;53.590;9.922;2022-10-30T09:32:07;20.20;60.80
44729;DHT22;30457;53.590;9.922;2022-10-30T09:36:39;20.40;60.70
44729;DHT22;30457;53.590;9.922;2022-10-30T09:46:35;20.70;59.90
44729;DHT22;30457;53.590;9.922;2022-10-30T09:51:30;20.80;59.30
44729;DHT22;30457;53.590;9.922;2022-10-30T09:56:16;20.90;59.50
44729;DHT22;30457;53.590;9.922;2022-10-30T10:00:53;21.00;59.00
44729;DHT22;30457;53.590;9.922;2022-10-30T10:05:50;21.20;59.20
44729;DHT22;30457;53.590;9.922;2022-10-30T10:29:20;21.60;58.80
44729;DHT22;30457;53.590;9.922;2022-10-30T10:34:15;21.70;58.40
44729;DHT22;30457;53.590;9.922;2022-10-30T10:39:05;21.80;58.80
44729;DHT22;30457;53.590;9.922;2022-10-30T10:43:57;21.90;58.40
44729;DHT22;30457;53.590;9.922;2022-10-30T10:53:30;22.10;57.90
44729;DHT22;30457;53.590;9.922;2022-10-30T10:58:07;22.20;58.10
44729;DHT22;30457;53.590;9.922;2022-10-30T11:07:22;22.40;58.20
44729;DHT22;30457;53.590;9.922;2022-10-30T11:11:50;22.60;58.00
44729;DHT22;30457;53.590;9.922;2022-10-30T11:16:49;22.60;57.90
44729;DHT22;30457;53.590;9.922;2022-10-30T11:21:22;22.80;57.70
44729;DHT22;30457;53.590;9.922;2022-10-30T11:25:48;22.90;57.80
44729;DHT22;30457;53.590;9.922;2022-10-30T11:30:20;23.00;57.20
44729;DHT22;30457;53.590;9.922;2022-10-30T11:34:45;23.10;57.00
44729;DHT22;30457;53.590;9.922;2022-10-30T11:39:17;23.20;56.90
44729;DHT22;30457;53.590;9.922;2022-10-30T11:43:44;23.30;57.00
44729;DHT22;30457;53.590;9.922;2022-10-30T11:48:36;23.40;56.40
44729;DHT22;30457;53.590;9.922;2022-10-30T11:53:10;23.50;56.20
44729;DHT22;30457;53.590;9.922;2022-10-30T11:57:41;23.60;56.20
44729;DHT22;30457;53.590;9.922;2022-10-30T12:02:41;23.70;55.80
44729;DHT22;30457;53.590;9.922;2022-10-30T12:07:08;23.80;55.50
44729;DHT22;30457;53.590;9.922;2022-10-30T12:11:36;23.90;55.50
44729;DHT22;30457;53.590;9.922;2022-10-30T12:16:06;24.00;55.30
44729;DHT22;30457;53.590;9.922;2022-10-30T12:20:36;24.10;55.00
44729;DHT22;30457;53.590;9.922;2022-10-30T12:25:05;24.10;55.00
44729;DHT22;30457;53.590;9.922;2022-10-30T12:30:04;24.20;55.10
44729;DHT22;30457;53.590;9.922;2022-10-30T12:34:59;24.30;54.40
44729;DHT22;30457;53.590;9.922;2022-10-30T12:39:43;24.30;54.00
44729;DHT22;30457;53.590;9.922;2022-10-30T12:44:23;24.40;54.20
44729;DHT22;30457;53.590;9.922;2022-10-30T12:48:57;24.50;53.90
44729;DHT22;30457;53.590;9.922;2022-10-30T12:53:31;24.50;54.30
44729;DHT22;30457;53.590;9.922;2022-10-30T12:58:08;24.50;54.10
44729;DHT22;30457;53.590;9.922;2022-10-30T13:12:02;24.60;53.80
44729;DHT22;30457;53.590;9.922;2022-10-30T13:16:30;24.60;53.60
44729;DHT22;30457;53.590;9.922;2022-10-30T13:26:07;24.60;53.50
44729;DHT22;30457;53.590;9.922;2022-10-30T13:30:38;24.60;53.60
44729;DHT22;30457;53.590;9.922;2022-10-30T13:39:57;24.50;53.10
44729;DHT22;30457;53.590;9.922;2022-10-30T13:49:41;24.50;52.80
44729;DHT22;30457;53.590;9.922;2022-10-30T13:54:26;24.50;53.20
44729;DHT22;30457;53.590;9.922;2022-10-30T13:59:10;24.40;53.50
44729;DHT22;30457;53.590;9.922;2022-10-30T14:22:38;24.30;53.40
44729;DHT22;30457;53.590;9.922;2022-10-30T14:31:36;24.30;53.60
44729;DHT22;30457;53.590;9.922;2022-10-30T14:49:52;24.10;53.80
44729;DHT22;30457;53.590;9.922;2022-10-30T14:54:41;24.10;53.40
44729;DHT22;30457;53.590;9.922;2022-10-30T15:03:41;24.00;53.80
44729;DHT22;30457;53.590;9.922;2022-10-30T15:08:40;23.90;53.80
44729;DHT22;30457;53.590;9.922;2022-10-30T15:13:32;23.80;53.70
44729;DHT22;30457;53.590;9.922;2022-10-30T15:18:02;23.70;53.80
44729;DHT22;30457;53.590;9.922;2022-10-30T15:22:32;23.60;53.80
44729;DHT22;30457;53.590;9.922;2022-10-30T15:26:59;23.50;53.80
44729;DHT22;30457;53.590;9.922;2022-10-30T15:31:26;23.40;53.80
44729;DHT22;30457;53.590;9.922;2022-10-30T15:35:52;23.30;53.80
44729;DHT22;30457;53.590;9.922;2022-10-30T15:40:19;23.20;53.80
44729;DHT22;30457;53.590;9.922;2022-10-30T15:44:45;23.10;54.00
44729;DHT22;30457;53.590;9.922;2022-10-30T15:49:16;23.00;54.00
44729;DHT22;30457;53.590;9.922;2022-10-30T15:53:51;22.80;54.40
44729;DHT22;30457;53.590;9.922;2022-10-30T15:58:20;22.70;53.80
44729;DHT22;30457;53.590;9.922;2022-10-30T16:02:47;22.60;53.90
44729;DHT22;30457;53.590;9.922;2022-10-30T16:07:22;22.50;54.10
44729;DHT22;30457;53.590;9.922;2022-10-30T16:11:49;22.30;53.90
44729;DHT22;30457;53.590;9.922;2022-10-30T16:16:23;22.20;54.20
44729;DHT22;30457;53.590;9.922;2022-10-30T16:20:53;22.10;54.10
44729;DHT22;30457;53.590;9.922;2022-10-30T16:25:20;22.00;54.10
44729;DHT22;30457;53.590;9.922;2022-10-30T16:29:50;21.90;54.40
44729;DHT22;30457;53.590;9.922;2022-10-30T16:34:28;21.80;54.50
44729;DHT22;30457;53.590;9.922;2022-10-30T16:38:57;21.70;54.30
44729;DHT22;30457;53.590;9.922;2022-10-30T16:43:26;21.60;54.50
44729;DHT22;30457;53.590;9.922;2022-10-30T16:47:54;21.50;55.00
44729;DHT22;30457;53.590;9.922;2022-10-30T16:52:29;21.40;54.80
44729;DHT22;30457;53.590;9.922;2022-10-30T16:56:57;21.30;54.90
44729;DHT22;30457;53.590;9.922;2022-10-30T17:01:25;21.20;55.10
44729;DHT22;30457;53.590;9.922;2022-10-30T17:06:06;21.10;55.00
44729;DHT22;30457;53.590;9.922;2022-10-30T17:10:41;21.00;55.10
44729;DHT22;30457;53.590;9.922;2022-10-30T17:15:11;21.00;55.10
44729;DHT22;30457;53.590;9.922;2022-10-30T17:19:44;20.90;55.30
44729;DHT22;30457;53.590;9.922;2022-10-30T17:24:22;20.80;55.30
44729;DHT22;30457;53.590;9.922;2022-10-30T17:28:49;20.70;55.20
44729;DHT22;30457;53.590;9.922;2022-10-30T17:33:29;20.70;55.30
44729;DHT22;30457;53.590;9.922;2022-10-30T17:37:56;20.60;55.40
44729;DHT22;30457;53.590;9.922;2022-10-30T17:42:22;20.50;55.30
44729;DHT22;30457;53.590;9.922;2022-10-30T17:46:47;20.40;55.40
44729;DHT22;30457;53.590;9.922;2022-10-30T17:51:16;20.40;55.50
44729;DHT22;30457;53.590;9.922;2022-10-30T17:55:44;20.30;55.60
44729;DHT22;30457;53.590;9.922;2022-10-30T18:00:10;20.30;55.60
44729;DHT22;30457;53.590;9.922;2022-10-30T18:04:37;20.20;55.70
44729;DHT22;30457;53.590;9.922;2022-10-30T18:09:03;20.20;55.80
44729;DHT22;30457;53.590;9.922;2022-10-30T18:13:28;20.10;55.90
44729;DHT22;30457;53.590;9.922;2022-10-30T18:17:54;20.00;56.20
44729;DHT22;30457;53.590;9.922;2022-10-30T18:22:20;20.00;56.10
44729;DHT22;30457;53.590;9.922;2022-10-30T18:26:45;19.90;56.20
44729;DHT22;30457;53.590;9.922;2022-10-30T18:31:12;19.90;56.30
44729;DHT22;30457;53.590;9.922;2022-10-30T18:35:38;19.80;56.40
44729;DHT22;30457;53.590;9.922;2022-10-30T18:40:04;19.80;56.40
44729;DHT22;30457;53.590;9.922;2022-10-30T18:44:30;19.70;56.40
44729;DHT22;30457;53.590;9.922;2022-10-30T18:48:56;19.70;56.60
44729;DHT22;30457;53.590;9.922;2022-10-30T18:53:21;19.60;56.80
44729;DHT22;30457;53.590;9.922;2022-10-30T18:57:48;19.60;56.70
44729;DHT22;30457;53.590;9.922;2022-10-30T19:02:20;19.50;56.50
44729;DHT22;30457;53.590;9.922;2022-10-30T19:06:47;19.50;56.60
44729;DHT22;30457;53.590;9.922;2022-10-30T19:11:17;19.50;56.70
44729;DHT22;30457;53.590;9.922;2022-10-30T19:15:45;19.40;57.00
44729;DHT22;30457;53.590;9.922;2022-10-30T19:20:12;19.30;56.80
44729;DHT22;30457;53.590;9.922;2022-10-30T19:24:37;19.30;57.00
44729;DHT22;30457;53.590;9.922;2022-10-30T19:29:03;19.20;57.30
44729;DHT22;30457;53.590;9.922;2022-10-30T19:33:28;19.20;57.20
44729;DHT22;30457;53.590;9.922;2022-10-30T19:37:54;19.10;57.00
44729;DHT22;30457;53.590;9.922;2022-10-30T19:42:20;19.00;57.10
44729;DHT22;30457;53.590;9.922;2022-10-30T19:46:45;19.00;57.10
44729;DHT22;30457;53.590;9.922;2022-10-30T19:51:11;19.00;57.60
44729;DHT22;30457;53.590;9.922;2022-10-30T19:55:39;18.90;57.70
44729;DHT22;30457;53.590;9.922;2022-10-30T20:04:48;18.80;57.40
44729;DHT22;30457;53.590;9.922;2022-10-30T20:09:14;18.80;57.30
44729;DHT22;30457;53.590;9.922;2022-10-30T20:13:39;18.70;57.20
44729;DHT22;30457;53.590;9.922;2022-10-30T20:18:14;18.60;57.40
44729;DHT22;30457;53.590;9.922;2022-10-30T20:22:40;18.60;58.00
44729;DHT22;30457;53.590;9.922;2022-10-30T20:27:07;18.60;58.00
44729;DHT22;30457;53.590;9.922;2022-10-30T20:31:34;18.50;57.90
44729;DHT22;30457;53.590;9.922;2022-10-30T20:35:59;18.40;57.60
44729;DHT22;30457;53.590;9.922;2022-10-30T20:40:26;18.40;57.70
44729;DHT22;30457;53.590;9.922;2022-10-30T20:44:52;18.30;57.50
44729;DHT22;30457;53.590;9.922;2022-10-30T20:49:17;18.30;57.50
44729;DHT22;30457;53.590;9.922;2022-10-30T20:53:43;18.30;57.50
44729;DHT22;30457;53.590;9.922;2022-10-30T20:58:08;18.20;57.40
44729;DHT22;30457;53.590;9.922;2022-10-30T21:02:34;18.10;57.30
44729;DHT22;30457;53.590;9.922;2022-10-30T21:06:59;18.10;57.50
44729;DHT22;30457;53.590;9.922;2022-10-30T21:11:25;18.10;57.50
44729;DHT22;30457;53.590;9.922;2022-10-30T21:15:51;18.00;57.50
44729;DHT22;30457;53.590;9.922;2022-10-30T21:20:17;18.00;58.20
44729;DHT22;30457;53.590;9.922;2022-10-30T21:24:43;18.00;57.60
44729;DHT22;30457;53.590;9.922;2022-10-30T21:29:08;17.90;57.70
44729;DHT22;30457;53.590;9.922;2022-10-30T21:33:35;17.90;57.70
44729;DHT22;30457;53.590;9.922;2022-10-30T21:38:00;17.90;58.20
44729;DHT22;30457;53.590;9.922;2022-10-30T21:42:26;17.80;58.10
44729;DHT22;30457;53.590;9.922;2022-10-30T21:46:51;17.80;58.00
44729;DHT22;30457;53.590;9.922;2022-10-30T21:51:20;17.70;57.80
44729;DHT22;30457;53.590;9.922;2022-10-30T21:55:45;17.70;58.10
44729;DHT22;30457;53.590;9.922;2022-10-30T22:00:12;17.60;58.00
44729;DHT22;30457;53.590;9.922;2022-10-30T22:04:37;17.60;57.90
44729;DHT22;30457;53.590;9.922;2022-10-30T22:09:04;17.60;57.90
44729;DHT22;30457;53.590;9.922;2022-10-30T22:13:29;17.50;58.10
44729;DHT22;30457;53.590;9.922;2022-10-30T22:17:55;17.50;58.10
44729;DHT22;30457;53.590;9.922;2022-10-30T22:22:22;17.50;58.20
44729;DHT22;30457;53.590;9.922;2022-10-30T22:26:47;17.40;58.10
44729;DHT22;30457;53.590;9.922;2022-10-30T22:31:15;17.40;58.10
44729;DHT22;30457;53.590;9.922;2022-10-30T22:35:42;17.40;58.20
44729;DHT22;30457;53.590;9.922;2022-10-30T22:40:08;17.30;58.20
44729;DHT22;30457;53.590;9.922;2022-10-30T22:44:33;17.30;58.20
44729;DHT22;30457;53.590;9.922;2022-10-30T22:48:59;17.30;58.60
44729;DHT22;30457;53.590;9.922;2022-10-30T22:53:26;17.20;58.70
44729;DHT22;30457;53.590;9.922;2022-10-30T22:57:53;17.20;58.90
44729;DHT22;30457;53.590;9.922;2022-10-30T23:02:18;17.20;58.90
44729;DHT22;30457;53.590;9.922;2022-10-30T23:06:44;17.20;59.30
44729;DHT22;30457;53.590;9.922;2022-10-30T23:11:10;17.20;59.40
44729;DHT22;30457;53.590;9.922;2022-10-30T23:15:37;17.20;59.60
44729;DHT22;30457;53.590;9.922;2022-10-30T23:20:05;17.20;59.80
44729;DHT22;30457;53.590;9.922;2022-10-30T23:24:30;17.20;60.10
44729;DHT22;30457;53.590;9.922;2022-10-30T23:28:57;17.20;60.20
44729;DHT22;30457;53.590;9.922;2022-10-30T23:33:23;17.20;60.30
44729;DHT22;30457;53.590;9.922;2022-10-30T23:37:48;17.20;60.60
44729;DHT22;30457;53.590;9.922;2022-10-30T23:42:14;17.20;60.70
44729;DHT22;30457;53.590;9.922;2022-10-30T23:46:39;17.20;61.20
44729;DHT22;30457;53.590;9.922;2022-10-30T23:51:06;17.30;61.30
44729;DHT22;30457;53.590;9.922;2022-10-30T23:55:32;17.30;61.80
44729;DHT22;30457;53.590;9.922;2022-10-30T23:59:57;17.40;62.20
